Time;durP1;ratioP1;P1;durP2;ratioP2;P2;SDS_P1;SDS_P2;PMS_P1;PMS_P2;Temp;Humidity;BMP_temperature;BMP_pressure;BME280_temperature;BME280_humidity;BME280_pressure;Samples;Min_cycle;Max_cycle;Signal;HPM_P1;HPM_P2
2023/09/02 00:01:11;;;;;;;6.85;4.50;;;;;;;17.45;100.00;101604.13;5203034;28;20036;-73
2023/09/02 00:03:41;;;;;;;12.27;5.07;;;;;;;17.44;100.00;101607.88;5204288;28;20067;-73
2023/09/02 00:06:12;;;;;;;18.38;4.93;;;;;;;17.40;100.00;101603.84;5193348;28;20505;-72
2023/09/02 00:08:42;;;;;;;13.93;4.85;;;;;;;17.35;100.00;101605.25;5203526;28;20045;-73
2023/09/02 00:11:13;;;;;;;12.45;4.45;;;;;;;17.31;100.00;101605.84;5204129;28;20100;-73
2023/09/02 00:13:43;;;;;;;6.47;4.30;;;;;;;17.28;100.00;101608.94;5204113;28;20025;-73
2023/09/02 00:16:14;;;;;;;10.32;5.40;;;;;;;17.24;100.00;101599.53;5203195;28;20498;-73
2023/09/02 00:18:46;;;;;;;12.45;4.88;;;;;;;17.20;100.00;101606.34;5203754;28;20274;-73
2023/09/02 00:21:16;;;;;;;9.85;4.90;;;;;;;17.15;100.00;101608.78;5204054;28;20052;-72
2023/09/02 00:23:47;;;;;;;10.77;4.57;;;;;;;17.09;100.00;101611.25;5203797;28;20021;-72
2023/09/02 00:26:17;;;;;;;11.55;5.72;;;;;;;17.03;100.00;101606.59;5203198;28;20477;-73
2023/09/02 00:28:48;;;;;;;10.65;3.90;;;;;;;16.97;100.00;101607.34;5203678;28;20025;-73
2023/09/02 00:31:18;;;;;;;7.60;3.72;;;;;;;16.94;100.00;101610.44;5204934;28;20029;-73
2023/09/02 00:33:49;;;;;;;58.53;5.82;;;;;;;16.90;100.00;101617.25;5204899;28;20232;-73
2023/09/02 00:36:20;;;;;;;22.35;4.35;;;;;;;16.84;100.00;101615.31;5203967;28;20071;-73
2023/09/02 00:38:50;;;;;;;39.58;4.60;;;;;;;16.80;100.00;101619.41;5203249;28;20025;-73
2023/09/02 00:41:29;;;;;;;31.83;4.93;;;;;;;16.74;100.00;101604.75;5203714;28;20028;-73
2023/09/02 00:44:00;;;;;;;6.82;4.35;;;;;;;16.71;100.00;101596.13;5203853;28;20103;-72
2023/09/02 00:46:30;;;;;;;12.45;5.10;;;;;;;16.69;100.00;101603.63;5203192;28;20025;-72
2023/09/02 00:49:01;;;;;;;12.20;5.35;;;;;;;16.68;100.00;101608.19;5202116;28;20025;-73
2023/09/02 00:51:31;;;;;;;7.53;4.32;;;;;;;16.67;100.00;101608.38;5203132;28;20047;-72
2023/09/02 00:54:02;;;;;;;13.00;4.22;;;;;;;16.67;100.00;101613.81;5203316;28;20033;-73
2023/09/02 00:56:35;;;;;;;9.00;5.03;;;;;;;16.63;100.00;101613.34;5202757;28;20025;-73
2023/09/02 00:59:06;;;;;;;13.88;5.30;;;;;;;16.60;100.00;101619.13;5203032;28;20049;-72
2023/09/02 01:01:40;;;;;;;10.02;4.07;;;;;;;16.61;100.00;101618.06;5203456;28;20095;-72
2023/09/02 01:04:11;;;;;;;9.95;5.18;;;;;;;16.58;100.00;101627.44;5202569;28;20398;-73
2023/09/02 01:06:42;;;;;;;8.43;4.70;;;;;;;16.56;100.00;101620.50;5193900;28;20022;-72
2023/09/02 01:09:13;;;;;;;14.85;3.95;;;;;;;16.55;100.00;101626.97;5203046;28;20029;-72
2023/09/02 01:11:44;;;;;;;9.10;3.80;;;;;;;16.53;100.00;101618.19;5191390;28;20088;-72
2023/09/02 01:14:15;;;;;;;7.68;4.05;;;;;;;16.53;100.00;101619.03;5182753;28;20026;-72
2023/09/02 01:16:45;;;;;;;5.20;3.65;;;;;;;16.52;100.00;101620.06;5183413;28;20029;-73
2023/09/02 01:19:18;;;;;;;8.48;3.33;;;;;;;16.48;100.00;101623.31;5190239;28;20111;-72
2023/09/02 01:21:54;;;;;;;7.40;3.50;;;;;;;16.47;100.00;101629.78;5190280;28;20025;-72
2023/09/02 01:24:32;;;;;;;7.53;4.15;;;;;;;16.43;100.00;101631.16;5202544;28;20371;-72
2023/09/02 01:27:28;;;;;;;127.88;7.93;;;;;;;16.36;100.00;101622.09;5183056;28;20030;-72
2023/09/02 01:30:08;;;;;;;37.10;3.08;;;;;;;16.27;100.00;101626.78;5183429;28;20078;-72
2023/09/02 01:32:42;;;;;;;42.90;3.08;;;;;;;16.22;100.00;101637.31;5182878;28;20345;-72
2023/09/02 01:35:16;;;;;;;17.20;2.63;;;;;;;16.14;100.00;101638.22;5182563;28;20053;-72
2023/09/02 01:37:51;;;;;;;2.70;2.30;;;;;;;16.14;100.00;101635.50;5182778;28;20029;-72
2023/09/02 01:40:25;;;;;;;7.25;2.55;;;;;;;16.12;100.00;101644.84;5182711;28;20076;-72
2023/09/02 01:42:58;;;;;;;4.95;2.67;;;;;;;16.07;100.00;101644.56;5182832;28;20026;-73
2023/09/02 01:45:35;;;;;;;11.90;2.90;;;;;;;16.03;100.00;101644.06;5182100;28;20032;-73
2023/09/02 01:48:07;;;;;;;5.07;3.13;;;;;;;16.02;100.00;101645.94;5182547;28;20022;-72
2023/09/02 01:50:40;;;;;;;7.53;3.53;;;;;;;16.02;100.00;101647.81;5182144;28;20026;-72
2023/09/02 01:53:24;;;;;;;9.43;3.72;;;;;;;16.01;100.00;101643.41;5182158;28;20483;-73
2023/09/02 01:55:56;;;;;;;13.43;4.38;;;;;;;15.98;100.00;101650.03;5181623;28;20061;-72
2023/09/02 01:58:26;;;;;;;10.65;3.85;;;;;;;15.95;100.00;101649.53;5181758;28;20045;-72
2023/09/02 02:00:58;;;;;;;18.02;3.95;;;;;;;15.91;100.00;101649.06;5198898;28;20080;-73
2023/09/02 02:03:41;;;;;;;31.60;4.32;;;;;;;15.88;100.00;101651.31;5202372;28;20141;-72
2023/09/02 02:06:12;;;;;;;112.70;5.72;;;;;;;15.82;100.00;101650.19;5181063;28;20049;-72
2023/09/02 02:08:54;;;;;;;29.65;2.90;;;;;;;15.79;100.00;101650.53;5192274;28;20068;-72
2023/09/02 02:11:28;;;;;;;3.55;2.35;;;;;;;15.72;100.00;101639.59;5191050;28;20025;-72
2023/09/02 02:14:01;;;;;;;3.88;2.40;;;;;;;15.69;100.00;101650.75;5188659;28;20033;-72
2023/09/02 02:16:36;;;;;;;2.35;1.70;;;;;;;15.66;100.00;101664.66;5190367;28;20033;-72
2023/09/02 02:19:06;;;;;;;5.13;1.67;;;;;;;15.62;100.00;101666.00;5182814;28;20388;-73
2023/09/02 02:21:37;;;;;;;3.60;1.80;;;;;;;15.60;100.00;101659.91;5182885;28;20021;-72
2023/09/02 02:24:08;;;;;;;6.10;1.75;;;;;;;15.60;100.00;101665.34;5183060;28;20133;-72
2023/09/02 02:26:38;;;;;;;3.20;1.95;;;;;;;15.60;100.00;101662.63;5182654;28;20033;-72
2023/09/02 02:29:09;;;;;;;5.00;2.60;;;;;;;15.61;100.00;101658.91;5190179;28;20476;-72
2023/09/02 02:31:39;;;;;;;6.18;3.03;;;;;;;15.59;100.00;101662.81;5199796;28;20033;-72
2023/09/02 02:34:10;;;;;;;6.57;2.80;;;;;;;15.55;100.00;101675.84;5182236;28;20026;-72
2023/09/02 02:36:41;;;;;;;8.43;2.38;;;;;;;15.51;100.00;101674.50;5182636;28;20101;-72
2023/09/02 02:39:11;;;;;;;5.75;2.42;;;;;;;15.49;100.00;101672.00;5182226;28;20018;-72
2023/09/02 02:41:42;;;;;;;5.18;2.33;;;;;;;15.49;100.00;101663.03;5182103;28;20021;-72
2023/09/02 02:44:12;;;;;;;13.77;3.25;;;;;;;15.48;100.00;101669.47;5182117;28;20103;-72
2023/09/02 02:46:43;;;;;;;6.68;2.90;;;;;;;15.48;100.00;101669.47;5182047;28;20013;-72
2023/09/02 02:49:13;;;;;;;7.93;3.17;;;;;;;15.45;100.00;101677.94;5182185;28;20022;-72
2023/09/02 02:51:44;;;;;;;12.05;3.50;;;;;;;15.41;100.00;101677.47;5182295;28;20053;-72
2023/09/02 02:54:15;;;;;;;10.68;3.92;;;;;;;15.41;100.00;101682.00;5183197;28;20026;-72
2023/09/02 02:56:46;;;;;;;12.63;4.25;;;;;;;15.42;100.00;101676.44;5193100;28;20084;-72
2023/09/02 02:59:18;;;;;;;6.93;3.67;;;;;;;15.42;100.00;101678.31;5198368;28;20022;-72
2023/09/02 03:01:50;;;;;;;9.10;4.20;;;;;;;15.42;100.00;101683.72;5202504;28;20029;-72
2023/09/02 03:04:21;;;;;;;8.43;3.58;;;;;;;15.40;100.00;101672.22;5200370;28;20436;-72
2023/09/02 03:06:51;;;;;;;9.18;3.80;;;;;;;15.38;100.00;101683.22;5197002;28;20068;-73
2023/09/02 03:09:22;;;;;;;12.60;3.30;;;;;;;15.33;100.00;101688.31;5204648;28;20420;-73
2023/09/02 03:11:52;;;;;;;7.72;4.57;;;;;;;15.31;100.00;101693.03;5205527;28;20124;-72
2023/09/02 03:14:24;;;;;;;8.48;4.10;;;;;;;15.34;100.00;101686.47;5205599;28;20021;-73
2023/09/02 03:16:55;;;;;;;10.00;4.65;;;;;;;15.34;100.00;101681.06;5204576;28;20040;-72
2023/09/02 03:19:26;;;;;;;8.13;4.47;;;;;;;15.35;100.00;101688.13;5204879;28;20431;-73
2023/09/02 03:21:56;;;;;;;16.48;5.63;;;;;;;15.34;100.00;101683.75;5205197;28;20065;-73
2023/09/02 03:24:27;;;;;;;12.13;5.53;;;;;;;15.31;100.00;101678.69;5205064;28;20144;-73
2023/09/02 03:26:59;;;;;;;16.80;4.70;;;;;;;15.28;100.00;101680.75;5203411;28;20071;-72
2023/09/02 03:29:30;;;;;;;6.90;3.95;;;;;;;15.26;100.00;101677.38;5204329;28;20036;-72
2023/09/02 03:32:00;;;;;;;5.97;3.72;;;;;;;15.23;100.00;101677.72;5203084;28;20498;-72
2023/09/02 03:34:31;;;;;;;9.13;3.20;;;;;;;15.19;100.00;101670.13;5204844;28;20032;-72
2023/09/02 03:37:01;;;;;;;5.90;3.05;;;;;;;15.17;100.00;101672.19;5204368;28;20058;-72
2023/09/02 03:39:33;;;;;;;10.35;3.67;;;;;;;15.16;100.00;101668.66;5204847;28;20045;-72
2023/09/02 03:42:04;;;;;;;7.18;2.50;;;;;;;15.15;100.00;101664.25;5204944;28;20470;-72
2023/09/02 03:44:34;;;;;;;20.92;4.00;;;;;;;15.12;100.00;101669.19;5204678;28;20031;-72
2023/09/02 03:47:05;;;;;;;13.40;2.92;;;;;;;15.08;100.00;101668.69;5204312;28;20013;-72
2023/09/02 03:49:35;;;;;;;15.35;3.72;;;;;;;15.02;100.00;101669.38;5204638;28;20052;-73
2023/09/02 03:52:06;;;;;;;20.20;3.83;;;;;;;15.00;100.00;101682.22;5204667;28;20025;-72
2023/09/02 03:54:37;;;;;;;6.43;3.13;;;;;;;14.97;100.00;101682.56;5204116;28;20026;-72
2023/09/02 03:57:08;;;;;;;4.28;3.15;;;;;;;14.93;100.00;101681.22;5203844;28;20413;-72
2023/09/02 03:59:38;;;;;;;8.52;3.00;;;;;;;14.92;100.00;101685.81;5204469;28;20161;-72
2023/09/02 04:02:09;;;;;;;7.25;2.90;;;;;;;14.87;100.00;101680.06;5204439;28;20544;-73
2023/09/02 04:04:40;;;;;;;5.78;3.22;;;;;;;14.89;100.00;101682.59;5199036;28;20021;-72
2023/09/02 04:07:10;;;;;;;16.20;3.35;;;;;;;14.88;100.00;101675.50;5198125;28;20241;-72
2023/09/02 04:09:41;;;;;;;6.00;3.10;;;;;;;14.87;100.00;101673.84;5203813;28;20044;-72
2023/09/02 04:12:11;;;;;;;6.07;3.22;;;;;;;14.88;100.00;101680.91;5204137;28;20032;-72
2023/09/02 04:14:42;;;;;;;6.65;3.20;;;;;;;14.85;100.00;101675.84;5203775;28;20490;-72
2023/09/02 04:17:12;;;;;;;9.38;3.92;;;;;;;14.83;100.00;101675.19;5203596;28;20109;-72
2023/09/02 04:19:43;;;;;;;4.25;2.72;;;;;;;14.81;100.00;101672.69;5204165;28;20018;-72
2023/09/02 04:22:13;;;;;;;6.10;3.97;;;;;;;14.81;100.00;101666.41;5204010;28;20075;-72
2023/09/02 04:24:44;;;;;;;5.38;3.70;;;;;;;14.82;100.00;101660.84;5203905;28;20416;-72
2023/09/02 04:27:14;;;;;;;8.50;3.25;;;;;;;14.83;100.00;101665.22;5203456;28;20029;-72
2023/09/02 04:29:45;;;;;;;5.68;3.50;;;;;;;14.83;100.00;101659.81;5203713;28;20433;-72
2023/09/02 04:32:15;;;;;;;12.15;3.83;;;;;;;14.82;100.00;101663.56;5203612;28;20110;-72
2023/09/02 04:34:46;;;;;;;11.00;4.18;;;;;;;14.82;100.00;101668.94;5203591;28;20025;-72
2023/09/02 04:37:16;;;;;;;6.10;4.00;;;;;;;14.83;100.00;101667.09;5203289;28;20330;-72
2023/09/02 04:39:47;;;;;;;11.75;4.45;;;;;;;14.81;100.00;101672.69;5203625;28;20024;-72
2023/09/02 04:42:17;;;;;;;8.32;3.65;;;;;;;14.83;100.00;101676.03;5204060;28;20031;-72
2023/09/02 04:44:50;;;;;;;7.88;4.47;;;;;;;14.84;100.00;101680.41;5203060;28;20099;-72
2023/09/02 04:47:20;;;;;;;13.75;3.38;;;;;;;14.87;100.00;101673.84;5201891;28;20441;-72
2023/09/02 04:49:51;;;;;;;6.40;2.88;;;;;;;14.85;100.00;101683.97;5184274;28;20057;-72
2023/09/02 04:52:21;;;;;;;7.68;3.58;;;;;;;14.84;100.00;101684.97;5183764;28;20145;-72
2023/09/02 04:54:52;;;;;;;7.05;4.03;;;;;;;14.84;100.00;101690.38;5183693;28;20033;-72
2023/09/02 04:57:22;;;;;;;8.63;4.15;;;;;;;14.85;100.00;101690.19;5183927;28;20072;-72
2023/09/02 04:59:53;;;;;;;8.60;3.97;;;;;;;14.88;100.00;101689.88;5203297;28;20096;-72
2023/09/02 05:02:24;;;;;;;5.57;3.20;;;;;;;14.94;100.00;101694.56;5187940;28;20065;-73
2023/09/02 05:04:54;;;;;;;10.07;4.57;;;;;;;15.00;100.00;101693.03;5183415;28;20022;-73
2023/09/02 05:07:25;;;;;;;8.63;3.95;;;;;;;15.07;100.00;101698.59;5182873;28;20402;-72
2023/09/02 05:09:55;;;;;;;7.75;4.60;;;;;;;15.15;100.00;101703.94;5194512;28;20033;-71
2023/09/02 05:12:26;;;;;;;11.40;4.80;;;;;;;15.25;100.00;101707.28;5186774;28;20018;-71
2023/09/02 05:14:56;;;;;;;7.80;3.85;;;;;;;15.29;100.00;101700.50;5182342;28;20029;-71
2023/09/02 05:17:27;;;;;;;6.85;3.70;;;;;;;15.33;100.00;101704.53;5183321;28;20025;-71
2023/09/02 05:19:58;;;;;;;6.47;4.25;;;;;;;15.37;100.00;101715.84;5182016;28;20101;-72
2023/09/02 05:22:28;;;;;;;8.23;4.50;;;;;;;15.38;100.00;101712.13;5182294;28;20521;-72
2023/09/02 05:24:59;;;;;;;6.80;3.53;;;;;;;15.44;100.00;101717.66;5191561;28;20033;-72
2023/09/02 05:27:31;;;;;;;8.63;4.22;;;;;;;15.47;100.00;101719.19;5199437;28;20021;-72
2023/09/02 05:30:01;;;;;;;8.68;3.90;;;;;;;15.54;100.00;101722.84;5199112;28;20017;-71
2023/09/02 05:32:32;;;;;;;10.07;5.30;;;;;;;15.64;100.00;101728.06;5189069;28;20482;-72
2023/09/02 05:35:02;;;;;;;9.82;4.65;;;;;;;15.71;100.00;101729.91;5187795;28;20052;-72
2023/09/02 05:37:33;;;;;;;8.32;4.80;;;;;;;15.82;100.00;101735.91;5192419;28;20522;-71
2023/09/02 05:40:04;;;;;;;9.93;5.95;;;;;;;15.90;100.00;101742.09;5197931;28;20021;-71
2023/09/02 05:42:35;;;;;;;9.80;5.60;;;;;;;15.98;100.00;101742.03;5184069;28;20078;-72
2023/09/02 05:45:06;;;;;;;17.85;7.03;;;;;;;16.09;100.00;101739.94;5186910;28;20022;-72
2023/09/02 05:47:36;;;;;;;18.35;6.70;;;;;;;16.19;100.00;101748.66;5188957;28;20028;-71
2023/09/02 05:50:07;;;;;;;13.00;6.45;;;;;;;16.27;100.00;101757.56;5183300;28;20372;-71
2023/09/02 05:52:39;;;;;;;12.95;6.40;;;;;;;16.36;100.00;101768.31;5184871;28;20030;-71
2023/09/02 05:55:10;;;;;;;8.77;5.70;;;;;;;16.43;100.00;101769.28;5182972;28;20061;-71
2023/09/02 05:57:40;;;;;;;8.63;5.75;;;;;;;16.47;100.00;101776.03;5182301;28;20044;-71
2023/09/02 06:00:11;;;;;;;9.88;6.35;;;;;;;16.51;100.00;101778.16;5193022;28;20026;-72
2023/09/02 06:02:42;;;;;;;11.35;6.53;;;;;;;16.60;100.00;101778.09;5202694;28;20053;-71
2023/09/02 06:05:12;;;;;;;14.70;6.68;;;;;;;16.64;100.00;101792.97;5202091;28;20116;-72
2023/09/02 06:07:43;;;;;;;13.35;6.57;;;;;;;16.65;100.00;101786.50;5201769;28;20079;-71
2023/09/02 06:10:14;;;;;;;12.48;6.82;;;;;;;16.69;100.00;101788.69;5201861;28;20029;-72
2023/09/02 06:12:44;;;;;;;12.70;6.00;;;;;;;16.75;100.00;101787.97;5202487;28;20465;-72
2023/09/02 06:15:15;;;;;;;12.20;7.13;;;;;;;16.80;100.00;101798.25;5202140;28;20530;-72
2023/09/02 06:17:45;;;;;;;10.32;6.38;;;;;;;16.89;100.00;101808.00;5201934;28;20033;-71
2023/09/02 06:20:20;;;;;;;11.77;6.75;;;;;;;16.96;100.00;101817.06;5202357;28;20017;-72
2023/09/02 06:22:50;;;;;;;16.85;6.20;;;;;;;17.02;100.00;101815.50;5202124;28;20816;-72
2023/09/02 06:25:21;;;;;;;10.40;6.15;;;;;;;17.02;100.00;101816.34;5202098;28;20078;-72
2023/09/02 06:27:51;;;;;;;15.02;6.45;;;;;;;17.02;100.00;101824.47;5201975;28;20037;-72
2023/09/02 06:30:22;;;;;;;16.17;6.78;;;;;;;17.10;100.00;101826.25;5202564;28;20021;-72
2023/09/02 06:32:52;;;;;;;11.07;6.85;;;;;;;17.14;100.00;101833.00;5202226;28;20176;-72
2023/09/02 06:35:23;;;;;;;9.00;5.72;;;;;;;17.19;100.00;101832.44;5202220;28;20021;-72
2023/09/02 06:37:53;;;;;;;14.23;6.85;;;;;;;17.25;100.00;101834.41;5203655;28;20021;-72
2023/09/02 06:40:23;;;;;;;16.23;7.10;;;;;;;17.31;100.00;101830.94;5206300;28;20028;-72
2023/09/02 06:42:54;;;;;;;15.18;6.63;;;;;;;17.39;100.00;101840.88;5205854;28;20029;-71
2023/09/02 06:45:26;;;;;;;20.23;6.65;;;;;;;17.44;100.00;101849.28;5205939;28;20029;-72
2023/09/02 06:47:56;;;;;;;13.07;6.40;;;;;;;17.52;100.00;101839.19;5205128;28;20033;-72
2023/09/02 06:50:28;;;;;;;12.70;6.30;;;;;;;17.63;100.00;101850.59;5206173;28;20421;-72
2023/09/02 06:52:58;;;;;;;10.52;6.25;;;;;;;17.71;100.00;101845.88;5206046;28;20672;-72
2023/09/02 06:55:29;;;;;;;10.98;6.43;;;;;;;17.79;100.00;101839.56;5205830;28;20028;-72
2023/09/02 06:57:59;;;;;;;11.07;5.88;;;;;;;17.92;100.00;101844.28;5205349;28;20028;-72
2023/09/02 07:00:30;;;;;;;10.68;6.57;;;;;;;18.03;100.00;101849.25;5206356;28;20031;-72
2023/09/02 07:03:00;;;;;;;11.30;6.22;;;;;;;18.15;100.00;101844.16;5205837;28;20037;-72
2023/09/02 07:05:31;;;;;;;14.82;6.68;;;;;;;18.24;100.00;101846.56;5205581;28;20018;-72
2023/09/02 07:08:02;;;;;;;12.98;5.85;;;;;;;18.33;100.00;101856.25;5204982;28;20100;-72
2023/09/02 07:10:32;;;;;;;10.10;5.72;;;;;;;18.38;100.00;101853.81;5203159;28;20028;-72
2023/09/02 07:13:03;;;;;;;12.40;5.95;;;;;;;18.45;100.00;101853.03;5195239;28;20083;-72
2023/09/02 07:15:35;;;;;;;12.18;6.00;;;;;;;18.48;100.00;101852.66;5201346;28;20108;-72
2023/09/02 07:18:05;;;;;;;12.65;5.82;;;;;;;18.51;100.00;101860.41;5193055;28;20141;-72
2023/09/02 07:20:36;;;;;;;13.68;6.40;;;;;;;18.53;100.00;101859.19;5199991;28;20021;-72
2023/09/02 07:23:07;;;;;;;10.32;6.03;;;;;;;18.56;100.00;101863.38;5189799;28;20057;-72
2023/09/02 07:25:37;;;;;;;12.00;6.00;;;;;;;18.60;100.00;101872.81;5204233;28;20423;-72
2023/09/02 07:28:08;;;;;;;9.32;5.60;;;;;;;18.63;100.00;101881.44;5198259;28;20037;-71
2023/09/02 07:30:38;;;;;;;10.70;6.22;;;;;;;18.71;100.00;101885.91;5204887;28;20501;-72
2023/09/02 07:33:09;;;;;;;8.85;5.78;;;;;;;18.77;100.00;101889.72;5204549;28;20053;-73
2023/09/02 07:35:40;;;;;;;13.13;6.28;;;;;;;18.83;100.00;101895.25;5202777;28;20024;-72
2023/09/02 07:38:10;;;;;;;10.85;6.15;;;;;;;18.90;100.00;101887.16;5204686;28;20030;-72
2023/09/02 07:40:41;;;;;;;10.80;5.55;;;;;;;18.97;100.00;101900.78;5204744;28;20025;-72
2023/09/02 07:43:12;;;;;;;9.93;5.88;;;;;;;19.02;100.00;101901.88;5200636;28;20171;-73
2023/09/02 07:45:44;;;;;;;8.20;5.10;;;;;;;19.08;100.00;101900.28;5189461;28;20026;-72
2023/09/02 07:48:14;;;;;;;11.82;5.22;;;;;;;19.18;100.00;101910.78;5199437;28;20036;-71
2023/09/02 07:50:45;;;;;;;8.20;5.38;;;;;;;19.23;100.00;101920.06;5193190;28;20463;-72
2023/09/02 07:53:15;;;;;;;8.27;5.47;;;;;;;19.31;100.00;101916.34;5197313;28;20026;-71
2023/09/02 07:55:46;;;;;;;7.55;5.30;;;;;;;19.40;100.00;101910.56;5197447;28;20049;-72
2023/09/02 07:58:16;;;;;;;16.13;5.78;;;;;;;19.53;100.00;101917.09;5196139;28;20040;-72
2023/09/02 08:00:47;;;;;;;11.82;6.13;;;;;;;19.62;100.00;101916.78;5185362;28;20744;-72
2023/09/02 08:03:17;;;;;;;10.23;5.47;;;;;;;19.69;100.00;101907.84;5193425;28;20017;-72
2023/09/02 08:05:48;;;;;;;9.50;5.40;;;;;;;19.84;100.00;101906.66;5198750;28;20032;-72
2023/09/02 08:08:19;;;;;;;8.73;5.13;;;;;;;19.94;100.00;101908.19;5183342;28;20033;-72
2023/09/02 08:10:49;;;;;;;12.75;5.00;;;;;;;20.05;100.00;101907.59;5194278;28;20029;-71
2023/09/02 08:13:19;;;;;;;14.70;5.40;;;;;;;20.17;100.00;101895.88;5193685;28;20038;-72
2023/09/02 08:15:50;;;;;;;9.95;5.28;;;;;;;20.33;100.00;101902.88;5201750;28;20317;-71
2023/09/02 08:18:20;;;;;;;12.32;4.70;;;;;;;20.48;100.00;101910.06;5190589;28;20032;-72
2023/09/02 08:20:51;;;;;;;14.48;5.55;;;;;;;20.65;100.00;101920.38;5194669;28;20029;-72
2023/09/02 08:23:21;;;;;;;7.72;4.22;;;;;;;21.05;100.00;101927.78;5198325;28;20407;-72
2023/09/02 08:25:52;;;;;;;11.98;5.00;;;;;;;21.28;100.00;101930.06;5197151;28;20084;-71
2023/09/02 08:28:22;;;;;;;8.27;4.25;;;;;;;21.76;100.00;101941.56;5195772;28;20030;-72
2023/09/02 08:30:53;;;;;;;6.38;4.15;;;;;;;22.25;100.00;101939.34;5183271;28;20062;-72
2023/09/02 08:33:23;;;;;;;10.45;3.92;;;;;;;22.60;100.00;101937.06;5188293;28;20116;-71
2023/09/02 08:35:54;;;;;;;5.13;3.22;;;;;;;22.83;100.00;101923.63;5202211;28;20029;-72
2023/09/02 08:38:25;;;;;;;9.07;3.17;;;;;;;23.08;100.00;101931.03;5203579;28;20013;-72
2023/09/02 08:40:58;;;;;;;6.15;3.53;;;;;;;23.16;100.00;101925.31;5203092;28;20025;-72
2023/09/02 08:43:30;;;;;;;10.45;4.30;;;;;;;23.13;100.00;101923.00;5190291;28;20022;-72
2023/09/02 08:46:04;;;;;;;13.27;4.93;;;;;;;23.01;100.00;101931.09;5201335;28;20033;-72
2023/09/02 08:48:41;;;;;;;14.73;6.25;;;;;;;22.85;100.00;101928.91;5202719;28;20022;-72
2023/09/02 08:51:12;;;;;;;14.25;6.18;;;;;;;22.76;100.00;101925.56;5202642;28;20025;-72
2023/09/02 08:53:44;;;;;;;11.23;5.47;;;;;;;22.78;100.00;101928.09;5203094;28;20112;-73
2023/09/02 08:56:15;;;;;;;11.27;5.13;;;;;;;22.74;100.00;101933.16;5191201;28;20026;-73
2023/09/02 08:58:47;;;;;;;9.50;4.57;;;;;;;22.77;100.00;101932.72;5202766;28;20471;-73
2023/09/02 09:01:20;;;;;;;10.75;4.95;;;;;;;22.80;100.00;101935.03;5202701;28;20108;-72
2023/09/02 09:03:55;;;;;;;14.68;6.28;;;;;;;23.04;100.00;101936.13;5202945;28;20179;-72
2023/09/02 09:06:25;;;;;;;;;;;;;;;23.30;100.00;101935.06;5192091;28;20029;-72
2023/09/02 09:08:57;;;;;;;16.10;6.70;;;;;;;23.66;100.00;101936.22;5192312;28;20267;-73
2023/09/02 09:11:31;;;;;;;11.43;5.85;;;;;;;24.19;100.00;101932.84;5202857;28;20037;-72
2023/09/02 09:14:03;;;;;;;13.90;5.50;;;;;;;24.71;100.00;101935.97;5201624;28;20160;-73
2023/09/02 09:16:37;;;;;;;11.10;5.38;;;;;;;25.23;100.00;101937.03;5202654;28;20542;-72
2023/09/02 09:19:08;;;;;;;8.50;5.20;;;;;;;25.73;100.00;101939.31;5200170;28;20021;-73
2023/09/02 09:21:38;;;;;;;14.38;6.18;;;;;;;26.18;100.00;101937.81;5202332;28;20091;-73
2023/09/02 09:24:12;;;;;;;11.90;5.97;;;;;;;26.47;100.00;101928.50;5202605;28;20045;-73
2023/09/02 09:26:44;;;;;;;14.07;5.13;;;;;;;26.83;100.00;101921.72;5195987;28;20398;-73
2023/09/02 09:29:17;;;;;;;10.32;5.00;;;;;;;26.57;100.00;101933.38;5201916;28;20517;-73
2023/09/02 09:31:49;;;;;;;7.22;4.13;;;;;;;26.44;100.00;101925.41;5189225;28;20422;-73
2023/09/02 09:34:19;;;;;;;9.38;4.22;;;;;;;26.73;100.00;101931.72;5202238;28;20025;-73
2023/09/02 09:36:56;;;;;;;11.95;4.35;;;;;;;26.95;100.00;101935.41;5201410;28;20083;-72
2023/09/02 09:39:39;;;;;;;9.80;3.60;;;;;;;27.36;100.00;101945.22;5193566;28;20303;-73
2023/09/02 09:42:12;;;;;;;6.78;3.75;;;;;;;27.53;100.00;101945.19;5183259;28;20038;-74
2023/09/02 09:44:56;;;;;;;8.23;3.00;;;;;;;27.74;100.00;101942.75;5197521;28;20025;-73
2023/09/02 09:47:27;;;;;;;9.48;3.80;;;;;;;27.73;100.00;101946.59;5202495;28;20029;-73
2023/09/02 09:50:14;;;;;;;9.18;3.45;;;;;;;27.48;100.00;101952.56;5202347;28;20032;-73
2023/09/02 09:53:02;;;;;;;7.43;2.65;;;;;;;28.00;100.00;101955.78;5202263;28;20482;-74
2023/09/02 09:55:34;;;;;;;4.90;3.20;;;;;;;28.05;100.00;101949.50;5202157;28;20057;-74
2023/09/02 09:58:05;;;;;;;6.65;2.70;;;;;;;27.95;100.00;101952.13;5201878;28;20032;-73
2023/09/02 10:00:35;;;;;;;6.03;2.63;;;;;;;28.01;100.00;101957.44;5202253;28;20029;-73
2023/09/02 10:03:06;;;;;;;6.82;2.92;;;;;;;27.57;100.00;101960.13;5202594;28;20136;-74
2023/09/02 10:05:36;;;;;;;4.63;2.70;;;;;;;27.18;100.00;101955.66;5197899;28;20025;-73
2023/09/02 10:08:08;;;;;;;5.53;2.83;;;;;;;27.06;100.00;101962.06;5187684;28;20025;-73
2023/09/02 10:10:40;;;;;;;3.92;2.17;;;;;;;27.26;100.00;101969.88;5196868;28;20032;-73
2023/09/02 10:13:10;;;;;;;7.28;3.03;;;;;;;27.42;100.00;101975.63;5194176;28;20087;-73
2023/09/02 10:15:42;;;;;;;5.90;3.58;;;;;;;27.48;100.00;101978.19;5199521;28;20403;-74
2023/09/02 10:18:14;;;;;;;7.78;3.45;;;;;;;27.60;100.00;101980.84;5192158;28;20179;-74
2023/09/02 10:20:46;;;;;;;5.38;2.00;;;;;;;27.65;100.00;101978.16;5188837;28;20044;-74
2023/09/02 10:23:19;;;;;;;8.10;2.30;;;;;;;27.47;100.00;101964.66;5186102;28;20036;-73
2023/09/02 10:25:56;;;;;;;6.50;2.25;;;;;;;27.12;100.00;101970.44;5205003;28;20033;-73
2023/09/02 10:28:38;;;;;;;3.85;1.63;;;;;;;26.70;100.00;101971.59;5190368;28;20057;-73
2023/09/02 10:31:19;;;;;;;3.80;2.00;;;;;;;26.32;100.00;101975.78;5206001;28;20111;-74
2023/09/02 10:33:59;;;;;;;4.07;2.13;;;;;;;26.21;100.00;101967.59;5188232;28;20026;-73
2023/09/02 10:36:33;;;;;;;2.55;1.98;;;;;;;26.66;100.00;101962.16;5199494;28;20025;-74
2023/09/02 10:39:12;;;;;;;3.47;2.08;;;;;;;26.97;100.00;101973.72;5193657;28;20091;-73
2023/09/02 10:41:44;;;;;;;3.75;1.98;;;;;;;27.08;100.00;101970.94;5193880;28;20501;-73
2023/09/02 10:44:17;;;;;;;5.90;2.00;;;;;;;27.23;100.00;101967.59;5201125;28;20491;-73
2023/09/02 10:46:48;;;;;;;6.90;1.73;;;;;;;27.22;100.00;101967.84;5202058;28;20045;-74
2023/09/02 10:49:19;;;;;;;4.95;1.52;;;;;;;27.33;100.00;101981.53;5190193;28;20026;-74
2023/09/02 10:51:50;;;;;;;5.45;2.00;;;;;;;27.67;100.00;101977.91;5196239;28;20033;-73
2023/09/02 10:54:21;;;;;;;3.17;1.73;;;;;;;28.07;100.00;101988.72;5189884;28;20059;-74
2023/09/02 10:56:52;;;;;;;4.60;1.90;;;;;;;28.57;100.00;101983.00;5197411;28;20025;-74
2023/09/02 10:59:29;;;;;;;6.15;2.05;;;;;;;28.29;100.00;101989.53;5189254;28;20444;-73
2023/09/02 11:02:00;;;;;;;3.45;1.85;;;;;;;28.12;100.00;101983.25;5190610;28;20104;-73
2023/09/02 11:04:39;;;;;;;4.18;2.50;;;;;;;27.93;100.00;101984.66;5193108;28;20132;-74
2023/09/02 11:07:19;;;;;;;5.82;2.92;;;;;;;27.69;100.00;101984.84;5196501;28;20195;-74
2023/09/02 11:09:55;;;;;;;5.38;2.63;;;;;;;27.52;100.00;101979.34;5195445;28;20046;-74
2023/09/02 11:12:27;;;;;;;4.40;2.83;;;;;;;27.42;100.00;101987.47;5191178;28;20029;-73
2023/09/02 11:15:06;;;;;;;3.58;2.50;;;;;;;27.57;100.00;101995.97;5198880;28;20033;-74
2023/09/02 11:17:39;;;;;;;8.07;2.80;;;;;;;27.41;100.00;101987.69;5189473;28;20022;-74
2023/09/02 11:20:13;;;;;;;4.85;2.67;;;;;;;26.98;100.00;101995.50;5185903;28;20239;-74
2023/09/02 11:22:50;;;;;;;3.80;2.60;;;;;;;26.76;100.00;101997.31;5193292;28;20167;-73
2023/09/02 11:25:28;;;;;;;8.20;2.60;;;;;;;26.70;100.00;102003.78;5190695;28;20065;-74
2023/09/02 11:28:01;;;;;;;3.00;2.20;;;;;;;26.52;100.00;102013.91;5188305;28;20441;-74
2023/09/02 11:30:37;;;;;;;5.30;2.47;;;;;;;26.66;100.00;102002.59;5192544;28;20271;-73
2023/09/02 11:33:09;;;;;;;2.85;1.88;;;;;;;26.86;100.00;102008.50;5191249;28;20424;-74
2023/09/02 11:35:40;;;;;;;3.88;1.65;;;;;;;27.21;100.00;102007.47;5186046;28;20025;-74